EBOS/OST METAR and TAF weather

Enter ICAO airport designator
Station Type Date Time Source
EBOS METAR 2021/05/11 01:50 UTC NOAA

EBOS 110150Z 11003KT CAVOK 09/08 Q1008 NOSIG


Station Type Date Time Source
EBOS Decoded METAR 2021/05/11 01:50 UTC NOAA

Oostende Airport , Belgium (EBOS) 51-12N 002-52E 5M
May 10, 2021 - 09:50 PM EDT / 2021.05.11 0150 UTC
Wind: from the ESE (110 degrees) at 3 MPH (3 KT):0
Visibility: greater than 7 mile(s):0
Temperature: 48 F (9 C)
Dew Point: 46 F (8 C)
Relative Humidity: 93%
Pressure (altimeter): 29.77 in. Hg (1008 hPa)
ob: EBOS 110150Z 11003KT CAVOK 09/08 Q1008 NOSIG
cycle: 2

Station Type Date Time Source
EBOS TAF 2021/05/10 18:27 UTC NOAA

TAF EBOS 101710Z 1018/1124 VRB05KT CAVOK PROB30
TEMPO 1114/1119 VRB15G25KT 3500 SHRA TSRA

Example: see airport list